Kezdőlap
METAR-TAF:

METAR-TAF

Repülőterek :

Merrill Municipal Airport

Merrill, Wisconsin, Amerikai Egyesült Államok

földrajzi szélesség: 45-11N, földrajzi hosszúság: 089-42W, magasság: 401 m

Jelenlegi meteorológiai megfigyelések

A jelentés 30 perccel ezelõtt készült, 18:15 UTC
Nyugat-északnyugati szél 12 kt széllökések: 16 kt
Hőmérséklet 27°C
Páratartalom 30%
Légköri nyomás 1008 hPa
Látótávolság: 16.1 km
Derült ég

METAR: KRRL 181815Z AUTO 29012G16KT 10SM CLR 27/08 A2977 RMK AO2 T02720079 TSNO

Idő: 13:45 (18:45 UTC)


TAF: hiányzik

Meteorológiai megfigyelések és előrejelzések több, mint 4000 repülőtéren (METAR és TAF jelentéseket).

A térképen piros és sárga pontok jelzik az elérhető meteorológiai állomásokat.

Mozgassa az egeret a pont fölött, hogy megjelenjen az állomás neve.

Azután kattintson az időjárási megfigyelések és előrejelzések megtekintéséhez.

A térkép megváltoztatása: kattintson a fekete keresztel jelölt zöld gombra ráközelítéshez, a vonallal jelölt zöld gombra távolításhoz, vagy a zöld nyilakra a szomszédos térképek eléréséhez.


METAR-TAF: